Time;durP1;ratioP1;P1;durP2;ratioP2;P2;SDS_P1;SDS_P2;PMS_P1;PMS_P2;Temp;Humidity;BMP_temperature;BMP_pressure;BME280_temperature;BME280_humidity;BME280_pressure;Samples;Min_cycle;Max_cycle;Signal;HPM_P1;HPM_P2
2022/07/21 00:00:33;;;;;;;7.63;5.70;;;23.80;99.90;;;;;;5018667;28;20476;-54
2022/07/21 00:03:01;;;;;;;7.93;6.00;;;23.80;99.90;;;;;;5022042;28;20477;-56
2022/07/21 00:05:29;;;;;;;6.57;5.97;;;23.70;99.90;;;;;;5022920;28;20421;-56
2022/07/21 00:07:56;;;;;;;8.67;5.03;;;23.60;99.90;;;;;;5021973;28;20461;-55
2022/07/21 00:10:25;;;;;;;7.70;5.30;;;23.50;99.90;;;;;;5018236;28;20435;-56
2022/07/21 00:12:54;;;;;;;6.17;5.47;;;23.50;99.90;;;;;;5017192;28;20469;-56
2022/07/21 00:15:24;;;;;;;11.30;6.63;;;23.50;99.90;;;;;;5019564;28;20712;-57
2022/07/21 00:17:52;;;;;;;7.10;6.37;;;23.50;99.90;;;;;;5014960;28;20618;-56
2022/07/21 00:20:20;;;;;;;6.40;5.80;;;23.50;99.90;;;;;;5019889;28;20434;-54
2022/07/21 00:22:48;;;;;;;7.80;6.53;;;23.40;99.90;;;;;;5012605;28;20491;-55
2022/07/21 00:25:15;;;;;;;8.57;5.83;;;23.40;99.90;;;;;;5019909;28;20801;-56
2022/07/21 00:27:43;;;;;;;6.60;6.00;;;23.30;99.90;;;;;;5016898;28;20779;-59
2022/07/21 00:30:12;;;;;;;6.87;6.17;;;23.20;99.90;;;;;;5014350;28;20447;-56
2022/07/21 00:32:39;;;;;;;8.70;6.10;;;23.20;99.90;;;;;;5017115;28;20435;-55
2022/07/21 00:35:08;;;;;;;8.20;5.73;;;23.10;99.90;;;;;;5017133;28;20465;-55
2022/07/21 00:37:36;;;;;;;8.70;6.07;;;23.10;99.90;;;;;;5017611;28;20448;-57
2022/07/21 00:40:05;;;;;;;6.33;5.47;;;23.20;99.90;;;;;;5015347;28;20767;-54
2022/07/21 00:42:33;;;;;;;7.23;6.50;;;23.20;99.90;;;;;;5019594;28;20469;-54
2022/07/21 00:45:01;;;;;;;6.73;5.87;;;23.10;99.90;;;;;;5016417;28;20782;-54
2022/07/21 00:47:30;;;;;;;6.63;5.80;;;22.90;99.90;;;;;;5018449;28;20880;-55
2022/07/21 00:50:00;;;;;;;7.03;6.27;;;23.00;99.90;;;;;;5015875;28;20650;-55
2022/07/21 00:52:27;;;;;;;6.80;6.10;;;23.00;99.90;;;;;;5021435;28;20423;-54
2022/07/21 00:54:54;;;;;;;6.53;5.90;;;22.90;99.90;;;;;;5019433;28;20437;-55
2022/07/21 00:57:21;;;;;;;9.20;6.40;;;22.80;99.90;;;;;;5020564;28;20409;-52
2022/07/21 00:59:49;;;;;;;11.17;6.47;;;22.80;99.90;;;;;;5023706;28;20790;-56
2022/07/21 01:02:17;;;;;;;13.13;6.73;;;22.90;99.90;;;;;;5020424;28;20497;-55
2022/07/21 01:04:45;;;;;;;7.63;6.30;;;22.80;99.90;;;;;;5022573;28;20501;-55
2022/07/21 01:07:13;;;;;;;6.53;5.93;;;22.70;99.90;;;;;;5019358;28;20794;-55
2022/07/21 01:09:40;;;;;;;8.60;6.50;;;22.80;99.90;;;;;;5021547;28;20412;-55
2022/07/21 01:12:09;;;;;;;9.40;6.70;;;22.70;99.90;;;;;;5020302;28;20421;-54
2022/07/21 01:14:36;;;;;;;6.90;5.77;;;22.60;99.90;;;;;;5022339;28;20423;-57
2022/07/21 01:17:04;;;;;;;7.03;6.33;;;22.70;99.90;;;;;;5019414;28;20413;-54
2022/07/21 01:19:31;;;;;;;9.30;6.73;;;22.60;99.90;;;;;;5020388;28;20449;-53
2022/07/21 01:21:59;;;;;;;8.67;6.37;;;22.50;99.90;;;;;;5018512;28;20420;-52
2022/07/21 01:24:26;;;;;;;8.07;5.60;;;22.50;99.90;;;;;;5020297;28;20468;-52
2022/07/21 01:26:54;;;;;;;6.67;6.07;;;22.40;99.90;;;;;;5023546;28;20452;-55
2022/07/21 01:29:23;;;;;;;7.20;6.50;;;22.40;99.90;;;;;;5019861;28;20574;-56
2022/07/21 01:31:50;;;;;;;10.20;8.70;;;22.40;99.90;;;;;;5022847;28;20739;-56
2022/07/21 01:34:18;;;;;;;6.70;5.33;;;22.50;99.90;;;;;;5018995;28;20432;-56
2022/07/21 01:36:46;;;;;;;5.97;5.37;;;22.40;99.90;;;;;;5020921;28;20427;-54
2022/07/21 01:42:01;;;;;;;7.47;5.63;;;22.40;99.90;;;;;;5021123;28;20456;-56
2022/07/21 01:44:28;;;;;;;8.17;6.53;;;22.60;99.90;;;;;;5021850;28;20687;-55
2022/07/21 01:46:56;;;;;;;7.67;6.70;;;22.40;99.90;;;;;;5020048;28;20472;-57
2022/07/21 01:49:23;;;;;;;10.70;7.27;;;22.40;99.90;;;;;;5022431;28;20405;-56
2022/07/21 01:51:51;;;;;;;7.03;6.43;;;22.60;99.90;;;;;;5017634;28;20409;-56
2022/07/21 01:54:18;;;;;;;7.43;6.63;;;22.60;99.90;;;;;;5020512;28;20454;-57
2022/07/21 01:56:50;;;;;;;7.30;6.60;;;22.40;99.90;;;;;;5014955;28;20468;-55
2022/07/21 01:59:18;;;;;;;10.47;6.53;;;22.40;99.90;;;;;;5019610;28;20452;-57
2022/07/21 02:01:46;;;;;;;7.50;6.40;;;22.40;99.90;;;;;;5020995;28;20461;-56
2022/07/21 02:04:14;;;;;;;10.00;6.57;;;22.30;99.90;;;;;;5017848;28;20461;-54
2022/07/21 02:06:41;;;;;;;7.00;6.10;;;22.00;99.90;;;;;;5020327;28;20486;-55
2022/07/21 02:09:09;;;;;;;9.10;6.17;;;21.90;99.90;;;;;;5017470;28;20405;-54
2022/07/21 02:11:37;;;;;;;7.60;6.73;;;21.80;99.90;;;;;;5019270;28;20421;-53
2022/07/21 02:14:05;;;;;;;8.47;6.67;;;21.80;99.90;;;;;;5022259;28;20706;-55
2022/07/21 02:16:32;;;;;;;7.03;6.10;;;21.70;99.90;;;;;;5016864;28;20500;-55
2022/07/21 02:19:01;;;;;;;7.63;6.70;;;21.70;99.90;;;;;;5015018;28;20831;-57
2022/07/21 02:21:28;;;;;;;7.50;6.80;;;21.50;99.90;;;;;;5016443;28;20442;-55
2022/07/21 02:23:56;;;;;;;11.13;7.13;;;21.50;99.90;;;;;;5021145;28;20460;-57
2022/07/21 02:26:23;;;;;;;8.10;6.60;;;21.50;99.90;;;;;;5016084;28;20911;-53
2022/07/21 02:28:50;;;;;;;8.07;6.57;;;21.50;99.90;;;;;;5018406;28;20439;-55
2022/07/21 02:31:18;;;;;;;7.40;6.27;;;21.50;99.90;;;;;;5022167;28;20750;-51
2022/07/21 02:33:45;;;;;;;8.40;6.30;;;21.40;99.90;;;;;;5018184;28;20431;-53
2022/07/21 02:36:12;;;;;;;7.40;6.07;;;21.40;99.90;;;;;;5022315;28;20476;-55
2022/07/21 02:38:40;;;;;;;11.03;6.90;;;21.30;99.90;;;;;;5014483;28;20451;-56
2022/07/21 02:41:08;;;;;;;6.97;6.30;;;21.20;99.90;;;;;;5022200;28;20504;-53
2022/07/21 02:43:35;;;;;;;6.97;6.40;;;21.10;99.90;;;;;;5013832;28;20459;-53
2022/07/21 02:46:02;;;;;;;7.00;6.30;;;21.10;99.90;;;;;;5020100;28;20627;-52
2022/07/21 02:48:29;;;;;;;8.70;7.30;;;21.00;99.90;;;;;;5020222;28;20455;-53
2022/07/21 02:50:57;;;;;;;7.23;6.47;;;21.00;99.90;;;;;;5016265;28;20440;-56
2022/07/21 02:53:24;;;;;;;10.10;8.10;;;21.00;99.90;;;;;;5013256;28;20493;-54
2022/07/21 02:55:52;;;;;;;18.73;8.20;;;20.90;99.90;;;;;;5017834;28;20433;-55
2022/07/21 02:58:25;;;;;;;7.30;6.60;;;21.00;99.90;;;;;;5020339;28;20426;-57
2022/07/21 03:00:55;;;;;;;8.53;7.50;;;21.00;99.90;;;;;;5011270;28;20412;-55
2022/07/21 03:03:25;;;;;;;7.67;6.87;;;21.00;99.90;;;;;;5019714;28;20465;-54
2022/07/21 03:05:53;;;;;;;7.60;6.90;;;20.90;99.90;;;;;;5016916;28;20469;-58
2022/07/21 03:08:22;;;;;;;11.20;7.90;;;20.80;99.90;;;;;;5018119;28;20463;-57
2022/07/21 03:10:49;;;;;;;8.13;7.23;;;20.90;99.90;;;;;;5013385;28;20431;-57
2022/07/21 03:13:17;;;;;;;8.57;6.90;;;20.90;99.90;;;;;;5017464;28;20429;-52
2022/07/21 03:15:44;;;;;;;8.50;6.73;;;20.90;99.90;;;;;;5019562;28;20414;-53
2022/07/21 03:18:12;;;;;;;8.50;7.03;;;20.80;99.90;;;;;;5016529;28;20676;-51
2022/07/21 03:20:41;;;;;;;7.40;6.63;;;20.80;99.90;;;;;;5018956;28;20785;-55
2022/07/21 03:23:09;;;;;;;8.40;7.23;;;20.80;99.90;;;;;;5015721;28;20440;-55
2022/07/21 03:25:36;;;;;;;7.63;6.93;;;20.90;99.90;;;;;;5018057;28;20497;-54
2022/07/21 03:28:03;;;;;;;7.50;6.77;;;21.00;99.90;;;;;;5020463;28;20480;-55
2022/07/21 03:30:31;;;;;;;12.07;7.37;;;21.00;99.90;;;;;;5015398;28;20647;-53
2022/07/21 03:32:59;;;;;;;9.27;7.67;;;21.00;99.90;;;;;;5019282;28;20554;-55
2022/07/21 03:35:27;;;;;;;10.93;8.43;;;21.00;99.90;;;;;;5016119;28;20407;-55
2022/07/21 03:37:57;;;;;;;9.70;8.53;;;21.10;99.90;;;;;;5018655;28;20769;-54
2022/07/21 03:40:30;;;;;;;9.60;8.10;;;21.10;99.90;;;;;;5015130;28;20449;-54
2022/07/21 03:42:59;;;;;;;10.40;7.83;;;21.30;99.90;;;;;;5017918;28;20434;-57
2022/07/21 03:45:30;;;;;;;10.57;8.23;;;21.50;99.90;;;;;;5019749;28;20505;-56
2022/07/21 03:47:59;;;;;;;10.13;8.40;;;21.70;99.90;;;;;;5016913;28;20464;-56
2022/07/21 03:50:28;;;;;;;7.77;7.07;;;21.90;99.90;;;;;;5018364;28;20445;-56
2022/07/21 03:52:55;;;;;;;8.20;7.50;;;22.00;99.90;;;;;;5019002;28;20462;-56
2022/07/21 03:55:23;;;;;;;11.40;8.70;;;22.10;99.90;;;;;;5020111;28;20430;-55
2022/07/21 03:57:56;;;;;;;9.03;8.23;;;22.10;99.90;;;;;;5016343;28;20629;-54
2022/07/21 04:00:35;;;;;;;8.53;7.33;;;22.10;99.90;;;;;;5019784;28;20498;-54
2022/07/21 04:03:02;;;;;;;11.77;8.60;;;22.00;99.90;;;;;;5016570;28;20797;-54
2022/07/21 04:05:30;;;;;;;8.37;7.67;;;22.00;99.90;;;;;;5018724;28;20416;-53
2022/07/21 04:07:58;;;;;;;8.97;8.03;;;22.20;99.90;;;;;;5014044;28;20446;-55
2022/07/21 04:10:31;;;;;;;12.20;9.53;;;22.30;99.90;;;;;;5019557;28;20412;-57
2022/07/21 04:13:01;;;;;;;9.07;8.17;;;22.30;99.90;;;;;;5016926;28;20554;-52
2022/07/21 04:15:29;;;;;;;12.30;10.93;;;22.20;99.90;;;;;;5019278;28;20406;-55
2022/07/21 04:17:57;;;;;;;9.53;8.53;;;22.20;99.90;;;;;;5015404;28;20455;-54
2022/07/21 04:20:24;;;;;;;9.67;8.00;;;22.30;99.90;;;;;;5018209;28;20439;-55
2022/07/21 04:22:52;;;;;;;9.10;8.20;;;22.40;99.90;;;;;;5015508;28;20892;-53
2022/07/21 04:25:19;;;;;;;10.63;9.60;;;22.40;99.90;;;;;;5016728;28;20736;-55
2022/07/21 04:27:48;;;;;;;8.33;7.50;;;22.40;99.90;;;;;;5011726;28;20456;-54
2022/07/21 04:30:18;;;;;;;10.37;9.27;;;22.40;99.90;;;;;;5016343;28;20397;-53
2022/07/21 04:32:46;;;;;;;9.83;8.80;;;22.50;99.90;;;;;;5017368;28;20768;-52
2022/07/21 04:35:14;;;;;;;11.43;9.00;;;22.50;99.90;;;;;;5015332;28;20435;-54
2022/07/21 04:37:42;;;;;;;9.40;7.73;;;22.60;99.90;;;;;;5017371;28;20496;-54
2022/07/21 04:40:11;;;;;;;11.60;9.67;;;22.60;99.90;;;;;;5014628;28;20416;-55
2022/07/21 04:42:39;;;;;;;11.03;7.90;;;22.70;99.90;;;;;;5016717;28;20668;-52
2022/07/21 04:45:09;;;;;;;12.67;9.33;;;22.70;99.90;;;;;;5019850;28;20440;-51
2022/07/21 04:47:52;;;;;;;10.70;9.60;;;22.80;99.90;;;;;;5016291;28;20474;-53
2022/07/21 04:50:22;;;;;;;11.70;9.17;;;23.00;99.90;;;;;;5018882;28;20401;-56
2022/07/21 04:52:49;;;;;;;9.77;8.77;;;23.10;99.90;;;;;;5017257;28;20536;-51
2022/07/21 04:55:18;;;;;;;10.20;9.13;;;23.20;99.90;;;;;;5019618;28;20434;-57
2022/07/21 04:57:49;;;;;;;10.03;8.60;;;23.30;99.90;;;;;;5015094;28;20448;-56
2022/07/21 05:00:22;;;;;;;12.67;9.07;;;23.30;99.90;;;;;;5019418;28;20600;-56
2022/07/21 05:02:51;;;;;;;12.10;10.13;;;23.50;99.90;;;;;;5013941;28;20478;-55
2022/07/21 05:05:19;;;;;;;11.03;8.90;;;23.60;99.90;;;;;;5019684;28;20457;-57
2022/07/21 05:07:47;;;;;;;9.93;8.93;;;23.80;99.90;;;;;;5016674;28;20860;-56
2022/07/21 05:10:16;;;;;;;11.00;9.57;;;23.90;99.90;;;;;;5019464;28;20437;-55
2022/07/21 05:12:43;;;;;;;12.80;10.37;;;23.90;99.90;;;;;;5019292;28;20470;-55
2022/07/21 05:15:11;;;;;;;10.67;9.50;;;24.00;99.90;;;;;;5019205;28;20637;-55
2022/07/21 05:17:40;;;;;;;12.50;9.93;;;24.00;99.90;;;;;;5020126;28;20452;-57
2022/07/21 05:20:08;;;;;;;13.30;10.33;;;24.00;99.90;;;;;;5019645;28;20498;-55
2022/07/21 05:22:35;;;;;;;11.93;10.90;;;24.00;99.90;;;;;;5021032;28;20694;-57
2022/07/21 05:25:04;;;;;;;13.37;8.93;;;24.10;99.90;;;;;;5022129;28;20443;-53
2022/07/21 05:27:31;;;;;;;14.40;9.60;;;24.40;99.90;;;;;;5019615;28;20481;-51
2022/07/21 05:29:58;;;;;;;17.27;13.30;;;24.40;99.90;;;;;;5019911;28;20409;-55
2022/07/21 05:32:26;;;;;;;12.87;10.50;;;24.50;99.90;;;;;;5020878;28;20682;-52
2022/07/21 05:34:53;;;;;;;10.57;9.57;;;24.60;99.90;;;;;;5020958;28;20417;-53
2022/07/21 05:37:20;;;;;;;10.77;9.60;;;24.60;99.90;;;;;;5021906;28;20453;-52
2022/07/21 05:39:48;;;;;;;9.40;8.60;;;24.70;99.90;;;;;;5024834;28;20437;-52
2022/07/21 05:42:15;;;;;;;10.93;9.10;;;24.90;99.90;;;;;;5025030;28;20750;-58
2022/07/21 05:44:43;;;;;;;17.23;11.23;;;25.00;99.90;;;;;;5025142;28;20665;-54
2022/07/21 05:47:10;;;;;;;11.97;9.53;;;25.00;99.90;;;;;;5023182;28;20750;-54
2022/07/21 05:49:37;;;;;;;10.83;9.20;;;25.00;99.90;;;;;;5024780;28;20461;-51
2022/07/21 05:52:05;;;;;;;12.00;9.17;;;25.30;99.90;;;;;;5022397;28;20430;-51
2022/07/21 05:54:32;;;;;;;11.67;9.13;;;25.40;99.90;;;;;;5024106;28;20466;-54
2022/07/21 05:57:02;;;;;;;10.90;8.50;;;25.60;99.90;;;;;;5021436;28;20504;-56
2022/07/21 05:59:29;;;;;;;13.10;9.33;;;25.70;99.90;;;;;;5023463;28;20446;-53
2022/07/21 06:01:57;;;;;;;8.90;8.03;;;25.90;99.90;;;;;;5020196;28;20437;-53
2022/07/21 06:04:24;;;;;;;10.87;8.50;;;26.10;99.90;;;;;;5024645;28;20734;-57
2022/07/21 06:06:52;;;;;;;11.43;8.20;;;26.30;99.90;;;;;;5023242;28;20472;-52
2022/07/21 06:09:20;;;;;;;8.97;8.17;;;26.60;99.90;;;;;;5026614;28;20839;-56
2022/07/21 06:11:51;;;;;;;8.67;7.90;;;26.80;99.90;;;;;;5016961;28;20760;-54
2022/07/21 06:14:19;;;;;;;10.00;7.77;;;27.00;99.90;;;;;;5025588;28;20665;-57
2022/07/21 06:16:46;;;;;;;10.00;7.70;;;27.10;99.90;;;;;;5023535;28;20505;-56
2022/07/21 06:19:14;;;;;;;13.77;9.20;;;27.30;99.90;;;;;;5024519;28;20438;-52
2022/07/21 06:21:41;;;;;;;9.60;8.70;;;27.40;99.90;;;;;;5024677;28;20476;-56
2022/07/21 06:24:13;;;;;;;8.27;7.40;;;27.60;99.90;;;;;;5022262;28;20454;-51
2022/07/21 06:26:41;;;;;;;9.90;8.30;;;27.80;99.90;;;;;;5020541;28;20500;-52
2022/07/21 06:29:08;;;;;;;10.47;8.07;;;28.10;99.90;;;;;;5022244;28;20575;-51
2022/07/21 06:31:36;;;;;;;9.13;7.27;;;28.30;99.90;;;;;;5019618;28;20644;-53
2022/07/21 06:34:03;;;;;;;9.23;8.33;;;28.60;99.90;;;;;;5021657;28;20460;-54
2022/07/21 06:36:31;;;;;;;10.80;7.30;;;29.40;99.90;;;;;;5018613;28;20435;-55
2022/07/21 06:38:58;;;;;;;8.83;6.77;;;29.60;99.90;;;;;;5021549;28;20431;-50
2022/07/21 06:41:25;;;;;;;11.77;7.70;;;30.10;99.90;;;;;;5021765;28;20440;-54
2022/07/21 06:43:53;;;;;;;8.00;7.30;;;30.50;99.90;;;;;;5021449;28;20480;-56
2022/07/21 06:46:21;;;;;;;8.73;7.60;;;31.00;99.90;;;;;;5022306;28;20490;-55
2022/07/21 06:48:48;;;;;;;9.03;8.23;;;31.50;99.90;;;;;;5018124;28;20661;-55
2022/07/21 06:51:16;;;;;;;8.10;7.30;;;32.00;99.90;;;;;;5021793;28;20435;-56
2022/07/21 06:53:44;;;;;;;8.53;7.57;;;32.30;99.90;;;;;;5020546;28;20578;-55
2022/07/21 06:56:11;;;;;;;6.83;6.30;;;32.70;99.10;;;;;;5021375;28;20442;-56
2022/07/21 06:58:38;;;;;;;12.23;8.43;;;33.20;98.70;;;;;;5020181;28;20442;-53
2022/07/21 07:01:11;;;;;;;8.00;7.27;;;34.00;97.70;;;;;;5020462;28;20797;-53
2022/07/21 07:03:39;;;;;;;10.23;7.50;;;34.70;95.10;;;;;;5019752;28;20624;-56
2022/07/21 07:06:08;;;;;;;7.97;6.63;;;35.70;93.00;;;;;;5020605;28;20727;-57
2022/07/21 07:08:36;;;;;;;8.40;7.23;;;36.70;90.50;;;;;;5013104;28;20677;-55
2022/07/21 07:11:10;;;;;;;8.63;7.83;;;37.30;86.90;;;;;;5012857;28;20769;-57
2022/07/21 07:13:37;;;;;;;12.30;7.63;;;38.00;81.50;;;;;;5014062;28;20686;-52
2022/07/21 07:16:25;;;;;;;13.23;7.80;;;37.40;80.10;;;;;;5015436;28;20469;-56
2022/07/21 07:18:52;;;;;;;9.23;6.30;;;38.40;77.50;;;;;;5020969;28;20680;-57
2022/07/21 07:21:20;;;;;;;9.03;7.97;;;39.70;74.30;;;;;;5020377;28;20445;-58
2022/07/21 07:23:48;;;;;;;6.63;6.13;;;40.10;68.80;;;;;;5022133;28;22015;-54
2022/07/21 07:26:16;;;;;;;8.60;7.80;;;40.10;67.20;;;;;;5020839;28;20603;-56
2022/07/21 07:28:43;;;;;;;10.57;7.33;;;40.10;66.80;;;;;;5020991;28;20541;-54
2022/07/21 07:31:10;;;;;;;7.83;7.07;;;39.50;65.00;;;;;;5019473;28;20430;-56
2022/07/21 07:33:37;;;;;;;8.57;7.57;;;39.40;65.50;;;;;;5019125;28;20454;-54
2022/07/21 07:36:04;;;;;;;6.70;6.07;;;39.00;64.50;;;;;;5014130;28;20736;-58
2022/07/21 07:38:31;;;;;;;7.10;6.50;;;38.90;65.00;;;;;;5010887;28;20439;-56
2022/07/21 07:40:58;;;;;;;11.40;5.80;;;39.30;63.70;;;;;;5016841;28;20435;-56
2022/07/21 07:43:26;;;;;;;8.23;6.50;;;38.80;64.20;;;;;;5014189;28;20475;-57
2022/07/21 07:45:57;;;;;;;7.70;6.90;;;39.30;63.10;;;;;;5017245;28;20550;-56
2022/07/21 07:48:25;;;;;;;7.37;6.37;;;40.70;59.50;;;;;;5018868;28;20493;-57
2022/07/21 07:50:52;;;;;;;7.53;6.93;;;41.40;58.70;;;;;;5019402;28;20426;-58
2022/07/21 07:53:19;;;;;;;7.20;6.50;;;42.30;56.70;;;;;;5019157;28;20466;-55
2022/07/21 07:55:46;;;;;;;6.97;6.33;;;42.70;55.00;;;;;;5018964;28;20473;-55
2022/07/21 07:58:14;;;;;;;8.60;5.90;;;42.10;54.20;;;;;;5018529;28;20449;-57
2022/07/21 08:00:41;;;;;;;5.97;5.37;;;42.30;53.40;;;;;;5018686;28;20443;-57
2022/07/21 08:03:21;;;;;;;6.80;6.20;;;42.20;53.60;;;;;;5019269;28;20450;-55
2022/07/21 08:05:48;;;;;;;6.47;5.97;;;42.60;52.50;;;;;;5018283;28;20501;-59
2022/07/21 08:08:16;;;;;;;6.10;5.70;;;43.40;52.00;;;;;;5019001;28;20481;-57
2022/07/21 08:10:45;;;;;;;6.20;5.63;;;43.20;50.30;;;;;;5018996;28;20465;-55
2022/07/21 08:13:15;;;;;;;6.27;5.77;;;44.90;49.50;;;;;;5016627;28;20625;-58
2022/07/21 08:15:45;;;;;;;9.00;4.73;;;44.10;48.10;;;;;;5018200;28;20831;-57
2022/07/21 08:18:13;;;;;;;5.57;5.03;;;43.60;47.60;;;;;;5019116;28;20442;-54
2022/07/21 08:20:41;;;;;;;6.43;5.90;;;43.20;48.30;;;;;;5019591;28;20447;-57
2022/07/21 08:23:08;;;;;;;5.60;5.20;;;43.70;47.80;;;;;;5019662;28;20478;-57
2022/07/21 08:25:38;;;;;;;6.57;5.77;;;44.00;47.00;;;;;;5019001;28;20447;-57
2022/07/21 08:28:07;;;;;;;5.03;4.73;;;43.80;47.00;;;;;;5019568;28;20883;-58
2022/07/21 08:30:35;;;;;;;5.40;5.00;;;42.10;48.40;;;;;;5018886;28;20441;-55
2022/07/21 08:33:04;;;;;;;5.37;4.97;;;42.60;48.10;;;;;;5017711;28;20485;-59
2022/07/21 08:35:33;;;;;;;6.87;5.40;;;42.60;47.90;;;;;;5018853;28;20443;-58
2022/07/21 08:38:05;;;;;;;8.60;5.83;;;43.40;46.80;;;;;;5019550;28;20773;-56
2022/07/21 08:40:36;;;;;;;5.63;5.20;;;43.40;46.90;;;;;;5017557;28;20443;-56
2022/07/21 08:43:04;;;;;;;5.20;4.80;;;43.70;46.20;;;;;;5019534;28;20446;-58
2022/07/21 08:45:31;;;;;;;5.50;5.00;;;43.40;46.20;;;;;;5019562;28;20439;-57
2022/07/21 08:47:59;;;;;;;5.40;4.90;;;43.10;46.80;;;;;;5018957;28;20438;-58
2022/07/21 08:50:31;;;;;;;6.23;5.73;;;43.10;46.40;;;;;;5018700;28;20431;-58
2022/07/21 08:52:59;;;;;;;6.40;5.30;;;43.40;45.40;;;;;;5013768;28;20466;-57
2022/07/21 08:55:36;;;;;;;5.47;4.63;;;43.70;45.00;;;;;;5018551;28;20746;-55
2022/07/21 08:58:04;;;;;;;4.70;4.30;;;43.90;44.70;;;;;;5010065;28;20438;-54
2022/07/21 09:00:34;;;;;;;5.03;4.57;;;44.00;44.20;;;;;;5017922;28;20765;-58
2022/07/21 09:03:20;;;;;;;5.73;5.23;;;42.70;45.40;;;;;;5015402;28;20522;-57
2022/07/21 09:06:11;;;;;;;4.50;4.10;;;42.30;45.40;;;;;;5012063;28;20493;-59
2022/07/21 09:08:44;;;;;;;4.23;3.93;;;42.90;44.50;;;;;;5016706;28;20482;-60
2022/07/21 09:11:23;;;;;;;9.20;3.93;;;43.70;43.70;;;;;;5019362;28;20437;-58
2022/07/21 09:14:13;;;;;;;4.13;3.80;;;42.50;44.60;;;;;;5020051;28;20485;-58
2022/07/21 09:16:46;;;;;;;4.17;3.80;;;42.60;43.70;;;;;;5020975;28;20466;-58
2022/07/21 09:19:24;;;;;;;4.30;3.63;;;41.90;44.00;;;;;;5023929;28;20573;-57
2022/07/21 09:21:54;;;;;;;3.93;3.63;;;42.70;43.70;;;;;;5018997;28;20431;-55
2022/07/21 09:24:29;;;;;;;4.53;4.17;;;43.40;42.50;;;;;;5015463;28;20681;-57
2022/07/21 09:27:09;;;;;;;3.30;3.10;;;43.20;42.10;;;;;;5014542;28;20472;-58
2022/07/21 09:29:41;;;;;;;3.90;3.63;;;42.60;43.00;;;;;;5015628;28;20482;-57
2022/07/21 09:32:18;;;;;;;3.50;3.20;;;43.20;42.00;;;;;;5017149;28;20441;-59
2022/07/21 09:34:49;;;;;;;7.30;3.70;;;42.80;42.30;;;;;;5016140;28;20458;-58
2022/07/21 09:37:17;;;;;;;4.07;3.60;;;43.40;41.10;;;;;;5021679;28;20434;-54
2022/07/21 09:39:56;;;;;;;4.67;3.40;;;43.00;41.80;;;;;;5019249;28;20447;-57
2022/07/21 09:42:26;;;;;;;3.73;3.43;;;41.60;43.30;;;;;;5020915;28;20834;-53
2022/07/21 09:44:59;;;;;;;4.33;3.93;;;39.10;44.50;;;;;;5022841;28;20431;-59
2022/07/21 09:47:30;;;;;;;3.50;3.20;;;37.70;46.60;;;;;;5020489;28;20442;-54
2022/07/21 09:49:59;;;;;;;4.10;3.80;;;37.10;47.80;;;;;;5022371;28;20474;-58
2022/07/21 09:52:47;;;;;;;3.57;3.37;;;36.50;48.10;;;;;;5019113;28;20520;-58
2022/07/21 09:55:16;;;;;;;3.57;3.33;;;36.30;48.00;;;;;;5021275;28;20430;-58
2022/07/21 09:57:44;;;;;;;3.97;2.80;;;36.30;48.50;;;;;;5017255;28;20477;-57
2022/07/21 10:00:15;;;;;;;3.47;3.17;;;36.40;48.70;;;;;;5014658;28;20478;-58
2022/07/21 10:02:46;;;;;;;3.27;3.07;;;36.00;49.10;;;;;;5018415;28;20572;-57
2022/07/21 10:05:17;;;;;;;3.83;3.10;;;36.00;49.70;;;;;;5012558;28;20498;-58
2022/07/21 10:07:47;;;;;;;3.63;3.33;;;36.10;49.70;;;;;;5021751;28;20434;-56
2022/07/21 10:10:16;;;;;;;3.77;3.50;;;36.00;48.80;;;;;;5022344;28;20910;-57
2022/07/21 10:12:48;;;;;;;4.00;2.90;;;35.90;49.00;;;;;;5015857;28;20863;-56
2022/07/21 10:15:15;;;;;;;3.63;3.30;;;36.10;49.30;;;;;;5022062;28;20493;-58
2022/07/21 10:17:45;;;;;;;3.67;3.30;;;36.20;48.40;;;;;;5018505;28;20443;-59
2022/07/21 10:20:23;;;;;;;4.10;3.80;;;36.00;48.70;;;;;;5020861;28;20445;-58
2022/07/21 10:23:06;;;;;;;3.60;3.30;;;35.60;48.90;;;;;;5020204;28;20816;-57
2022/07/21 10:25:34;;;;;;;3.23;3.03;;;35.40;49.40;;;;;;5019885;28;20784;-53
2022/07/21 10:28:10;;;;;;;3.10;2.80;;;35.60;48.90;;;;;;5020772;28;20758;-57
2022/07/21 10:30:41;;;;;;;3.23;3.00;;;35.70;49.00;;;;;;5018940;28;20545;-58
2022/07/21 10:33:09;;;;;;;3.17;2.97;;;35.90;48.60;;;;;;5021577;28;20478;-56
2022/07/21 10:35:50;;;;;;;3.87;3.57;;;35.80;48.70;;;;;;5019005;28;20434;-56
2022/07/21 10:38:34;;;;;;;6.40;3.50;;;35.80;48.70;;;;;;5021204;28;20441;-55
2022/07/21 10:41:05;;;;;;;4.27;3.13;;;35.70;48.50;;;;;;5016814;28;20430;-55
2022/07/21 10:43:35;;;;;;;3.50;3.20;;;35.80;48.50;;;;;;5021378;28;20469;-57
2022/07/21 10:46:02;;;;;;;3.77;3.50;;;35.90;48.10;;;;;;5021290;28;20450;-56
2022/07/21 10:48:50;;;;;;;12.30;3.77;;;35.80;48.70;;;;;;5020733;28;20439;-56
2022/07/21 10:51:17;;;;;;;4.80;3.20;;;35.60;49.80;;;;;;5018281;28;20461;-58
2022/07/21 10:53:46;;;;;;;3.90;2.90;;;35.80;49.80;;;;;;5020183;28;20529;-55
2022/07/21 10:56:31;;;;;;;3.60;3.30;;;36.00;49.30;;;;;;5020994;28;20788;-56
2022/07/21 10:58:58;;;;;;;3.47;3.17;;;36.30;48.60;;;;;;5015041;28;20750;-57
2022/07/21 11:01:26;;;;;;;2.97;2.63;;;36.40;48.70;;;;;;5020800;28;20502;-55
2022/07/21 11:04:16;;;;;;;3.23;2.93;;;36.40;48.00;;;;;;5017004;28;20466;-57
2022/07/21 11:06:44;;;;;;;4.77;3.63;;;36.20;48.60;;;;;;5014194;28;20464;-58
2022/07/21 11:09:15;;;;;;;3.63;3.40;;;36.20;48.40;;;;;;5013756;28;20483;-56
2022/07/21 11:12:03;;;;;;;2.97;2.77;;;35.90;48.90;;;;;;5016539;28;20495;-53
2022/07/21 11:14:38;;;;;;;3.47;3.20;;;35.70;49.20;;;;;;5016282;28;20502;-57
2022/07/21 11:17:07;;;;;;;2.70;2.50;;;35.80;49.00;;;;;;5021202;28;20816;-56
2022/07/21 11:19:37;;;;;;;3.30;3.00;;;36.00;48.80;;;;;;5014350;28;20443;-58
2022/07/21 11:22:20;;;;;;;3.50;3.20;;;36.00;48.70;;;;;;5018505;28;20431;-57
2022/07/21 11:24:59;;;;;;;2.63;2.43;;;35.80;49.10;;;;;;5018847;28;20792;-58
2022/07/21 11:27:34;;;;;;;3.80;3.27;;;35.90;48.60;;;;;;5017954;28;20442;-55
2022/07/21 11:30:07;;;;;;;4.73;3.40;;;36.10;48.50;;;;;;5016571;28;20480;-56
2022/07/21 11:32:35;;;;;;;3.53;2.87;;;36.10;47.40;;;;;;5015007;28;20831;-55
2022/07/21 11:35:04;;;;;;;3.20;2.80;;;36.10;47.90;;;;;;5012849;28;20438;-57
2022/07/21 11:37:41;;;;;;;3.20;2.90;;;36.10;48.10;;;;;;5014647;28;20511;-59
2022/07/21 11:40:13;;;;;;;3.63;2.87;;;36.00;48.30;;;;;;5016412;28;20610;-54
2022/07/21 11:42:45;;;;;;;4.07;3.67;;;36.10;47.90;;;;;;5019567;28;20994;-55
2022/07/21 11:45:14;;;;;;;3.37;3.07;;;36.30;48.30;;;;;;5019894;28;20434;-57
2022/07/21 11:47:42;;;;;;;3.30;2.70;;;36.50;47.90;;;;;;5020072;28;20819;-56
2022/07/21 11:50:17;;;;;;;5.07;3.60;;;36.60;47.70;;;;;;5019343;28;20484;-58
2022/07/21 11:52:45;;;;;;;3.17;2.97;;;36.50;47.30;;;;;;5016375;28;20813;-57
2022/07/21 11:55:13;;;;;;;3.00;2.80;;;36.10;47.50;;;;;;5020458;28;20439;-55
2022/07/21 11:57:45;;;;;;;4.10;3.43;;;35.70;47.90;;;;;;5018542;28;20467;-54
2022/07/21 12:00:14;;;;;;;4.10;2.90;;;35.50;48.30;;;;;;5018901;28;20701;-57
2022/07/21 12:02:47;;;;;;;2.90;2.70;;;35.70;48.40;;;;;;5016262;28;20469;-56
2022/07/21 12:05:16;;;;;;;3.20;3.00;;;35.60;47.60;;;;;;5019848;28;20660;-55
2022/07/21 12:07:46;;;;;;;6.80;2.90;;;35.80;48.00;;;;;;5016630;28;20450;-55
2022/07/21 12:10:26;;;;;;;3.57;2.97;;;36.00;48.10;;;;;;5016240;28;20484;-57
2022/07/21 12:13:00;;;;;;;3.93;2.93;;;35.90;47.40;;;;;;5011238;28;20478;-58
2022/07/21 12:15:36;;;;;;;4.83;3.47;;;36.00;47.20;;;;;;5019714;28;20435;-56
2022/07/21 12:18:16;;;;;;;4.50;3.00;;;36.00;46.70;;;;;;5020194;28;20458;-56
2022/07/21 12:20:44;;;;;;;3.27;2.87;;;35.70;47.00;;;;;;5019581;28;20441;-58
2022/07/21 12:23:27;;;;;;;3.20;2.90;;;35.60;46.60;;;;;;5019726;28;20460;-57
2022/07/21 12:26:00;;;;;;;3.00;2.80;;;35.60;46.90;;;;;;5019384;28;20533;-58
2022/07/21 12:28:46;;;;;;;3.43;3.13;;;35.60;46.60;;;;;;5019605;28;20493;-57
2022/07/21 12:31:21;;;;;;;4.07;3.10;;;35.90;46.30;;;;;;5019594;28;20435;-57
2022/07/21 12:33:51;;;;;;;2.60;2.23;;;36.20;46.20;;;;;;5018313;28;20485;-59
2022/07/21 12:36:38;;;;;;;4.20;2.90;;;36.60;45.90;;;;;;5013409;28;20673;-58
2022/07/21 12:42:30;;;;;;;2.80;2.60;;;36.90;45.70;;;;;;5016124;28;20772;-59
2022/07/21 12:44:59;;;;;;;5.10;2.87;;;37.10;45.80;;;;;;5013452;28;20458;-57
2022/07/21 12:47:29;;;;;;;3.27;3.07;;;37.20;45.20;;;;;;5017951;28;20430;-58
2022/07/21 12:50:04;;;;;;;4.70;2.83;;;37.20;45.20;;;;;;5022767;28;20478;-57
2022/07/21 12:52:41;;;;;;;3.60;3.23;;;37.20;44.30;;;;;;5019957;28;20474;-58
2022/07/21 12:55:09;;;;;;;4.27;3.40;;;37.00;44.40;;;;;;5022601;28;20430;-57
2022/07/21 12:57:36;;;;;;;3.70;3.40;;;36.90;44.90;;;;;;5018954;28;20452;-56
2022/07/21 13:00:04;;;;;;;5.10;2.70;;;37.10;45.10;;;;;;5023642;28;20449;-59
2022/07/21 13:02:45;;;;;;;6.73;3.50;;;37.10;45.40;;;;;;5017893;28;20649;-58
2022/07/21 13:05:13;;;;;;;4.60;2.80;;;37.10;45.20;;;;;;5019113;28;20478;-59